Havbugvin — XPYL — position and weather

sailwx.info

Track history (hours):
 
Tides and Currents Weather Stations Pressure Air Temp Water Temp Dewpoint Dewpoint Depression Visibility Wind Speed Wind Dir Waves Ship Positions

Havbugvin

Last reported at 2017-Aug-02 18:02 UTC. Time now 2017-Aug-23 00:33 UTC.
Position N 61°59' W 007°25'.
Warning: this ship's position is 20 days out of date.

Length 38 m.

Type: Fishing. MMSI: 231181000.

Date/timePositionNaut miles runAvg speedWind from/ knotsBaromVisibWave heightAir tempDewpointWater temp
2017-Aug-02 18:02N 61°59' W 007°25'1 9.1
2017-Aug-02 17:56N 61°59' W 007°23'5 9.2
2017-Aug-02 17:25N 61°58' W 007°13'4 8.8
2017-Aug-02 17:00N 61°57' W 007°06'6 8.7
2017-Aug-02 16:18N 61°55' W 006°53'2 7.1
2017-Aug-02 16:00N 61°55' W 006°49'3 6.7
2017-Aug-02 15:31N 61°57' W 006°43'3 6.8
2017-Aug-02 15:01N 62°00' W 006°46'0 0.0
2017-Aug-02 14:31N 62°00' W 006°46'1 2.0
2017-Aug-02 14:01N 62°00' W 006°44'5 9.3
2017-Aug-02 13:31N 62°05' W 006°45'1 1.1
2017-Aug-02 13:01N 62°06' W 006°44'0 0.0
2017-Aug-02 12:30N 62°06' W 006°44'0 0.0
2017-Aug-02 12:00N 62°06' W 006°44'0 0.0
2017-Aug-02 11:31N 62°06' W 006°44'0 0.0
2017-Aug-02 11:00N 62°06' W 006°44'0 0.0
2017-Aug-02 10:31N 62°06' W 006°44'0 0.0
2017-Aug-02 10:01N 62°06' W 006°44'0 0.0
2017-Aug-02 09:31N 62°06' W 006°44'0 0.0
2017-Aug-02 09:01N 62°06' W 006°44'0 0.0
2017-Aug-02 08:30N 62°06' W 006°44'0 0.0
2017-Aug-02 08:01N 62°06' W 006°44'0 0.0
2017-Aug-02 07:30N 62°06' W 006°44'0 0.0
2017-Aug-02 07:01N 62°06' W 006°44'0 0.0
2017-Aug-02 06:31N 62°06' W 006°44'0 0.0
2017-Aug-02 06:01N 62°06' W 006°44'0 0.0
2017-Aug-02 05:30N 62°06' W 006°44'0 0.0
2017-Aug-02 05:01N 62°06' W 006°44'0 0.0
2017-Aug-02 04:31N 62°06' W 006°44'0 0.0
2017-Aug-02 04:01N 62°06' W 006°44'0 0.0
2017-Aug-02 03:31N 62°06' W 006°44'0 0.0
2017-Aug-02 03:01N 62°06' W 006°44'0 0.0
2017-Aug-02 02:31N 62°06' W 006°44'0 0.0
2017-Aug-02 02:01N 62°06' W 006°44'  
2017-Jul-29 19:00N 62°06' W 006°44'0 0.0
2017-Jul-29 18:30N 62°06' W 006°44'0 0.0
2017-Jul-29 18:00N 62°06' W 006°44'0 0.0
2017-Jul-29 17:30N 62°06' W 006°44'0 0.0
2017-Jul-29 17:00N 62°06' W 006°44'0 0.0
2017-Jul-29 16:30N 62°06' W 006°44'0 0.0
2017-Jul-29 16:00N 62°06' W 006°44'0 0.0
2017-Jul-29 15:30N 62°06' W 006°44'0 0.0
2017-Jul-29 15:00N 62°06' W 006°44'0 0.0
2017-Jul-29 14:00N 62°06' W 006°44'0 0.0
2017-Jul-29 13:30N 62°06' W 006°44'0 0.0
2017-Jul-29 13:00N 62°06' W 006°44'0 0.0
2017-Jul-29 12:30N 62°06' W 006°44'0 0.0
2017-Jul-29 12:00N 62°06' W 006°44'0 0.0
2017-Jul-29 11:30N 62°06' W 006°44'0 0.0
2017-Jul-29 11:00N 62°06' W 006°44'0 0.0
2017-Jul-29 10:30N 62°06' W 006°44'0 0.0
2017-Jul-29 10:00N 62°06' W 006°44'0 0.0
2017-Jul-29 09:30N 62°06' W 006°44'0 0.0
2017-Jul-29 09:00N 62°06' W 006°44'0 0.0
2017-Jul-29 08:30N 62°06' W 006°44'0 0.0
2017-Jul-29 08:00N 62°06' W 006°44'0 0.0
2017-Jul-29 07:30N 62°06' W 006°44'0 0.0
2017-Jul-29 07:00N 62°06' W 006°44'0 0.0
2017-Jul-29 06:30N 62°06' W 006°44'0 0.0
2017-Jul-29 06:00N 62°06' W 006°44'0 0.0
2017-Jul-29 05:30N 62°06' W 006°44'0 0.0
2017-Jul-29 05:00N 62°06' W 006°44'0 0.0
2017-Jul-29 04:30N 62°06' W 006°44'0 0.0
2017-Jul-29 04:00N 62°06' W 006°44'0 0.0
2017-Jul-29 03:30N 62°06' W 006°44'0 0.0
2017-Jul-29 03:00N 62°06' W 006°44'0 0.0
2017-Jul-29 02:30N 62°06' W 006°44'0 0.0
2017-Jul-29 02:00N 62°06' W 006°44'0 0.0
2017-Jul-29 01:30N 62°06' W 006°44'0 0.0
2017-Jul-29 01:00N 62°06' W 006°44'0 0.0
2017-Jul-29 00:30N 62°06' W 006°44'0 0.0
2017-Jul-29 00:00N 62°06' W 006°44'0 0.0
2017-Jul-28 23:30N 62°06' W 006°44'0 0.0
2017-Jul-28 23:00N 62°06' W 006°44'0 0.0
2017-Jul-28 22:30N 62°06' W 006°44'0 0.0
2017-Jul-28 22:00N 62°06' W 006°44'0 0.0
2017-Jul-28 21:30N 62°06' W 006°44'0 0.0
2017-Jul-28 21:00N 62°06' W 006°44'0 0.0
2017-Jul-28 20:30N 62°06' W 006°44'0 0.0
2017-Jul-28 20:00N 62°06' W 006°44'0 0.0
2017-Jul-28 19:30N 62°06' W 006°44'0 0.0
2017-Jul-28 19:00N 62°06' W 006°44'0 0.0
2017-Jul-28 18:30N 62°06' W 006°44'0 0.0
2017-Jul-28 18:00N 62°06' W 006°44'0 0.0
2017-Jul-28 17:30N 62°06' W 006°44'0 0.0
2017-Jul-28 17:00N 62°06' W 006°44'0 0.0
2017-Jul-28 16:30N 62°06' W 006°44'0 0.0
2017-Jul-28 16:00N 62°06' W 006°44'0 0.0
2017-Jul-28 15:30N 62°06' W 006°44'0 0.0
2017-Jul-28 15:00N 62°06' W 006°44'0 0.0
2017-Jul-28 14:30N 62°06' W 006°44'0 0.0
2017-Jul-28 14:00N 62°06' W 006°44'0 0.0
2017-Jul-28 13:30N 62°06' W 006°44'0 0.0
2017-Jul-28 13:00N 62°06' W 006°44'0 0.0
2017-Jul-28 12:30N 62°06' W 006°44'0 0.0
2017-Jul-28 12:00N 62°06' W 006°44'0 0.0
2017-Jul-28 11:30N 62°06' W 006°44'0 0.0
2017-Jul-28 11:00N 62°06' W 006°44'0 0.0
2017-Jul-28 10:30N 62°06' W 006°44'0 0.0
2017-Jul-28 10:00N 62°06' W 006°44'0 0.0
2017-Jul-28 09:30N 62°06' W 006°44'0 0.0
2017-Jul-28 09:00N 62°06' W 006°44'0 0.0
2017-Jul-28 08:30N 62°06' W 006°44'0 0.0
2017-Jul-28 08:00N 62°06' W 006°44'0 0.0
2017-Jul-28 07:30N 62°06' W 006°44'0 0.0
2017-Jul-28 07:00N 62°06' W 006°44'0 0.0
2017-Jul-28 06:30N 62°06' W 006°44'0 0.0
2017-Jul-28 06:00N 62°06' W 006°44'0 0.0
2017-Jul-28 05:30N 62°06' W 006°44'0 0.0
2017-Jul-28 05:00N 62°06' W 006°44'0 0.0
2017-Jul-28 04:30N 62°06' W 006°44'0 0.0
2017-Jul-28 04:00N 62°06' W 006°44'0 0.0
2017-Jul-28 03:30N 62°06' W 006°44'0 0.0
2017-Jul-28 03:00N 62°06' W 006°44'0 0.0
2017-Jul-28 02:30N 62°06' W 006°44'0 0.0
2017-Jul-28 02:00N 62°06' W 006°44'0 0.0
2017-Jul-28 01:30N 62°06' W 006°44'0 0.0
2017-Jul-28 01:00N 62°06' W 006°44'0 0.0
2017-Jul-28 00:30N 62°06' W 006°44'0 0.0
2017-Jul-28 00:00N 62°06' W 006°44'0 0.0
2017-Jul-27 23:30N 62°06' W 006°44'0 0.0
2017-Jul-27 23:00N 62°06' W 006°44'0 0.0
2017-Jul-27 22:30N 62°06' W 006°44'0 0.0
2017-Jul-27 22:00N 62°06' W 006°44'0 0.0
2017-Jul-27 21:30N 62°06' W 006°44'0 0.0
2017-Jul-27 21:00N 62°06' W 006°44'0 0.0
2017-Jul-27 20:30N 62°06' W 006°44'0 0.0
2017-Jul-27 20:00N 62°06' W 006°44'0 0.0
2017-Jul-27 19:30N 62°06' W 006°44'0 0.0
2017-Jul-27 19:00N 62°06' W 006°44'0 0.0
2017-Jul-27 18:30N 62°06' W 006°44'0 0.0
2017-Jul-27 18:00N 62°06' W 006°44'0 0.0
2017-Jul-27 17:30N 62°06' W 006°44'0 0.0
2017-Jul-27 17:00N 62°06' W 006°44'0 0.0
2017-Jul-27 16:30N 62°06' W 006°44'0 0.0
2017-Jul-27 16:00N 62°06' W 006°44'0 0.0
2017-Jul-27 15:30N 62°06' W 006°44'0 0.0
2017-Jul-27 15:00N 62°06' W 006°44'0 0.0
2017-Jul-27 14:00N 62°06' W 006°44'0 0.0
2017-Jul-27 13:30N 62°06' W 006°44'0 0.0
2017-Jul-27 13:00N 62°06' W 006°44'0 0.0
2017-Jul-27 12:30N 62°06' W 006°44'0 0.0
2017-Jul-27 12:00N 62°06' W 006°44'0 0.0
2017-Jul-27 11:30N 62°06' W 006°44'0 0.0
2017-Jul-27 11:00N 62°06' W 006°44'0 0.0
2017-Jul-27 10:30N 62°06' W 006°44'0 0.0
2017-Jul-27 10:01N 62°06' W 006°44'0 0.0
2017-Jul-27 09:30N 62°06' W 006°44'0 0.0
2017-Jul-27 09:00N 62°06' W 006°44'0 0.0
2017-Jul-27 08:30N 62°06' W 006°44'0 0.0
2017-Jul-27 08:00N 62°06' W 006°44'0 0.0
2017-Jul-27 07:29N 62°06' W 006°44'0 0.0
2017-Jul-27 07:00N 62°06' W 006°44'0 0.0
2017-Jul-27 06:30N 62°06' W 006°44'0 0.0
2017-Jul-27 06:00N 62°06' W 006°44'0 0.0
2017-Jul-27 05:30N 62°06' W 006°44'0 0.0
2017-Jul-27 05:00N 62°06' W 006°44'2 3.3
2017-Jul-27 04:30N 62°04' W 006°44'3 6.9
2017-Jul-27 04:00N 62°00' W 006°43'1 2.7
2017-Jul-27 03:30N 62°00' W 006°46'3 5.4
2017-Jul-27 03:00N 61°58' W 006°43'3 5.7
2017-Jul-27 02:30N 61°55' W 006°44'3 6.5
2017-Jul-27 02:00N 61°55' W 006°51'4 7.6
2017-Jul-27 01:30N 61°56' W 006°59'4 8.5
2017-Jul-27 01:00N 61°57' W 007°08'5 8.6
2017-Jul-27 00:28N 61°57' W 007°18'  
Track history (hours):
 
Tides and Currents Weather Stations Pressure Air Temp Water Temp Dewpoint Dewpoint Depression Visibility Wind Speed Wind Dir Waves Ship Positions

Havbugvin

Last reported at 2017-Aug-02 18:02 UTC. Time now 2017-Aug-23 00:33 UTC.
Position N 61°59' W 007°25'.
Warning: this ship's position is 20 days out of date.

Length 38 m.

Type: Fishing. MMSI: 231181000.

Date/timePositionNaut miles runAvg speedWind from/ knotsBaromVisibWave heightAir tempDewpointWater temp
2017-Aug-02 18:02N 61°59' W 007°25'1 9.1
2017-Aug-02 17:56N 61°59' W 007°23'5 9.2
2017-Aug-02 17:25N 61°58' W 007°13'4 8.8
2017-Aug-02 17:00N 61°57' W 007°06'6 8.7
2017-Aug-02 16:18N 61°55' W 006°53'2 7.1
2017-Aug-02 16:00N 61°55' W 006°49'3 6.7
2017-Aug-02 15:31N 61°57' W 006°43'3 6.8
2017-Aug-02 15:01N 62°00' W 006°46'0 0.0
2017-Aug-02 14:31N 62°00' W 006°46'1 2.0
2017-Aug-02 14:01N 62°00' W 006°44'5 9.3
2017-Aug-02 13:31N 62°05' W 006°45'1 1.1
2017-Aug-02 13:01N 62°06' W 006°44'0 0.0
2017-Aug-02 12:30N 62°06' W 006°44'0 0.0
2017-Aug-02 12:00N 62°06' W 006°44'0 0.0
2017-Aug-02 11:31N 62°06' W 006°44'0 0.0
2017-Aug-02 11:00N 62°06' W 006°44'0 0.0
2017-Aug-02 10:31N 62°06' W 006°44'0 0.0
2017-Aug-02 10:01N 62°06' W 006°44'0 0.0
2017-Aug-02 09:31N 62°06' W 006°44'0 0.0
2017-Aug-02 09:01N 62°06' W 006°44'0 0.0
2017-Aug-02 08:30N 62°06' W 006°44'0 0.0
2017-Aug-02 08:01N 62°06' W 006°44'0 0.0
2017-Aug-02 07:30N 62°06' W 006°44'0 0.0
2017-Aug-02 07:01N 62°06' W 006°44'0 0.0
2017-Aug-02 06:31N 62°06' W 006°44'0 0.0
2017-Aug-02 06:01N 62°06' W 006°44'0 0.0
2017-Aug-02 05:30N 62°06' W 006°44'0 0.0
2017-Aug-02 05:01N 62°06' W 006°44'0 0.0
2017-Aug-02 04:31N 62°06' W 006°44'0 0.0
2017-Aug-02 04:01N 62°06' W 006°44'0 0.0
2017-Aug-02 03:31N 62°06' W 006°44'0 0.0
2017-Aug-02 03:01N 62°06' W 006°44'0 0.0
2017-Aug-02 02:31N 62°06' W 006°44'0 0.0
2017-Aug-02 02:01N 62°06' W 006°44'  
2017-Jul-29 19:00N 62°06' W 006°44'0 0.0
2017-Jul-29 18:30N 62°06' W 006°44'0 0.0
2017-Jul-29 18:00N 62°06' W 006°44'0 0.0
2017-Jul-29 17:30N 62°06' W 006°44'0 0.0
2017-Jul-29 17:00N 62°06' W 006°44'0 0.0
2017-Jul-29 16:30N 62°06' W 006°44'0 0.0
2017-Jul-29 16:00N 62°06' W 006°44'0 0.0
2017-Jul-29 15:30N 62°06' W 006°44'0 0.0
2017-Jul-29 15:00N 62°06' W 006°44'0 0.0
2017-Jul-29 14:00N 62°06' W 006°44'0 0.0
2017-Jul-29 13:30N 62°06' W 006°44'0 0.0
2017-Jul-29 13:00N 62°06' W 006°44'0 0.0
2017-Jul-29 12:30N 62°06' W 006°44'0 0.0
2017-Jul-29 12:00N 62°06' W 006°44'0 0.0
2017-Jul-29 11:30N 62°06' W 006°44'0 0.0
2017-Jul-29 11:00N 62°06' W 006°44'0 0.0
2017-Jul-29 10:30N 62°06' W 006°44'0 0.0
2017-Jul-29 10:00N 62°06' W 006°44'0 0.0
2017-Jul-29 09:30N 62°06' W 006°44'0 0.0
2017-Jul-29 09:00N 62°06' W 006°44'0 0.0
2017-Jul-29 08:30N 62°06' W 006°44'0 0.0
2017-Jul-29 08:00N 62°06' W 006°44'0 0.0
2017-Jul-29 07:30N 62°06' W 006°44'0 0.0
2017-Jul-29 07:00N 62°06' W 006°44'0 0.0
2017-Jul-29 06:30N 62°06' W 006°44'0 0.0
2017-Jul-29 06:00N 62°06' W 006°44'0 0.0
2017-Jul-29 05:30N 62°06' W 006°44'0 0.0
2017-Jul-29 05:00N 62°06' W 006°44'0 0.0
2017-Jul-29 04:30N 62°06' W 006°44'0 0.0
2017-Jul-29 04:00N 62°06' W 006°44'0 0.0
2017-Jul-29 03:30N 62°06' W 006°44'0 0.0
2017-Jul-29 03:00N 62°06' W 006°44'0 0.0
2017-Jul-29 02:30N 62°06' W 006°44'0 0.0
2017-Jul-29 02:00N 62°06' W 006°44'0 0.0
2017-Jul-29 01:30N 62°06' W 006°44'0 0.0
2017-Jul-29 01:00N 62°06' W 006°44'0 0.0
2017-Jul-29 00:30N 62°06' W 006°44'0 0.0
2017-Jul-29 00:00N 62°06' W 006°44'0 0.0
2017-Jul-28 23:30N 62°06' W 006°44'0 0.0
2017-Jul-28 23:00N 62°06' W 006°44'0 0.0
2017-Jul-28 22:30N 62°06' W 006°44'0 0.0
2017-Jul-28 22:00N 62°06' W 006°44'0 0.0
2017-Jul-28 21:30N 62°06' W 006°44'0 0.0
2017-Jul-28 21:00N 62°06' W 006°44'0 0.0
2017-Jul-28 20:30N 62°06' W 006°44'0 0.0
2017-Jul-28 20:00N 62°06' W 006°44'0 0.0
2017-Jul-28 19:30N 62°06' W 006°44'0 0.0
2017-Jul-28 19:00N 62°06' W 006°44'0 0.0
2017-Jul-28 18:30N 62°06' W 006°44'0 0.0
2017-Jul-28 18:00N 62°06' W 006°44'0 0.0
2017-Jul-28 17:30N 62°06' W 006°44'0 0.0
2017-Jul-28 17:00N 62°06' W 006°44'0 0.0
2017-Jul-28 16:30N 62°06' W 006°44'0 0.0
2017-Jul-28 16:00N 62°06' W 006°44'0 0.0
2017-Jul-28 15:30N 62°06' W 006°44'0 0.0
2017-Jul-28 15:00N 62°06' W 006°44'0 0.0
2017-Jul-28 14:30N 62°06' W 006°44'0 0.0
2017-Jul-28 14:00N 62°06' W 006°44'0 0.0
2017-Jul-28 13:30N 62°06' W 006°44'0 0.0
2017-Jul-28 13:00N 62°06' W 006°44'0 0.0
2017-Jul-28 12:30N 62°06' W 006°44'0 0.0
2017-Jul-28 12:00N 62°06' W 006°44'0 0.0
2017-Jul-28 11:30N 62°06' W 006°44'0 0.0
2017-Jul-28 11:00N 62°06' W 006°44'0 0.0
2017-Jul-28 10:30N 62°06' W 006°44'0 0.0
2017-Jul-28 10:00N 62°06' W 006°44'0 0.0
2017-Jul-28 09:30N 62°06' W 006°44'0 0.0
2017-Jul-28 09:00N 62°06' W 006°44'0 0.0
2017-Jul-28 08:30N 62°06' W 006°44'0 0.0
2017-Jul-28 08:00N 62°06' W 006°44'0 0.0
2017-Jul-28 07:30N 62°06' W 006°44'0 0.0
2017-Jul-28 07:00N 62°06' W 006°44'0 0.0
2017-Jul-28 06:30N 62°06' W 006°44'0 0.0
2017-Jul-28 06:00N 62°06' W 006°44'0 0.0
2017-Jul-28 05:30N 62°06' W 006°44'0 0.0
2017-Jul-28 05:00N 62°06' W 006°44'0 0.0
2017-Jul-28 04:30N 62°06' W 006°44'0 0.0
2017-Jul-28 04:00N 62°06' W 006°44'0 0.0
2017-Jul-28 03:30N 62°06' W 006°44'0 0.0
2017-Jul-28 03:00N 62°06' W 006°44'0 0.0
2017-Jul-28 02:30N 62°06' W 006°44'0 0.0
2017-Jul-28 02:00N 62°06' W 006°44'0 0.0
2017-Jul-28 01:30N 62°06' W 006°44'0 0.0
2017-Jul-28 01:00N 62°06' W 006°44'0 0.0
2017-Jul-28 00:30N 62°06' W 006°44'0 0.0
2017-Jul-28 00:00N 62°06' W 006°44'0 0.0
2017-Jul-27 23:30N 62°06' W 006°44'0 0.0
2017-Jul-27 23:00N 62°06' W 006°44'0 0.0
2017-Jul-27 22:30N 62°06' W 006°44'0 0.0
2017-Jul-27 22:00N 62°06' W 006°44'0 0.0
2017-Jul-27 21:30N 62°06' W 006°44'0 0.0
2017-Jul-27 21:00N 62°06' W 006°44'0 0.0
2017-Jul-27 20:30N 62°06' W 006°44'0 0.0
2017-Jul-27 20:00N 62°06' W 006°44'0 0.0
2017-Jul-27 19:30N 62°06' W 006°44'0 0.0
2017-Jul-27 19:00N 62°06' W 006°44'0 0.0
2017-Jul-27 18:30N 62°06' W 006°44'0 0.0
2017-Jul-27 18:00N 62°06' W 006°44'0 0.0
2017-Jul-27 17:30N 62°06' W 006°44'0 0.0
2017-Jul-27 17:00N 62°06' W 006°44'0 0.0
2017-Jul-27 16:30N 62°06' W 006°44'0 0.0
2017-Jul-27 16:00N 62°06' W 006°44'0 0.0
2017-Jul-27 15:30N 62°06' W 006°44'0 0.0
2017-Jul-27 15:00N 62°06' W 006°44'0 0.0
2017-Jul-27 14:00N 62°06' W 006°44'0 0.0
2017-Jul-27 13:30N 62°06' W 006°44'0 0.0
2017-Jul-27 13:00N 62°06' W 006°44'0 0.0
2017-Jul-27 12:30N 62°06' W 006°44'0 0.0
2017-Jul-27 12:00N 62°06' W 006°44'0 0.0
2017-Jul-27 11:30N 62°06' W 006°44'0 0.0
2017-Jul-27 11:00N 62°06' W 006°44'0 0.0
2017-Jul-27 10:30N 62°06' W 006°44'0 0.0
2017-Jul-27 10:01N 62°06' W 006°44'0 0.0
2017-Jul-27 09:30N 62°06' W 006°44'0 0.0
2017-Jul-27 09:00N 62°06' W 006°44'0 0.0
2017-Jul-27 08:30N 62°06' W 006°44'0 0.0
2017-Jul-27 08:00N 62°06' W 006°44'0 0.0
2017-Jul-27 07:29N 62°06' W 006°44'0 0.0
2017-Jul-27 07:00N 62°06' W 006°44'0 0.0
2017-Jul-27 06:30N 62°06' W 006°44'0 0.0
2017-Jul-27 06:00N 62°06' W 006°44'0 0.0
2017-Jul-27 05:30N 62°06' W 006°44'0 0.0
2017-Jul-27 05:00N 62°06' W 006°44'2 3.3
2017-Jul-27 04:30N 62°04' W 006°44'3 6.9
2017-Jul-27 04:00N 62°00' W 006°43'1 2.7
2017-Jul-27 03:30N 62°00' W 006°46'3 5.4
2017-Jul-27 03:00N 61°58' W 006°43'3 5.7
2017-Jul-27 02:30N 61°55' W 006°44'3 6.5
2017-Jul-27 02:00N 61°55' W 006°51'4 7.6
2017-Jul-27 01:30N 61°56' W 006°59'4 8.5
2017-Jul-27 01:00N 61°57' W 007°08'5 8.6
2017-Jul-27 00:28N 61°57' W 007°18'  

Dump ship's entire track history